createdAt,value
2018-03-01T00:01:16.853Z,13.07
2018-03-01T00:03:44.289Z,12.25
2018-03-01T00:06:12.576Z,13.38
2018-03-01T00:08:39.319Z,13.02
2018-03-01T00:11:05.574Z,12.07
2018-03-01T00:13:32.574Z,12.90
2018-03-01T00:15:59.370Z,10.32
2018-03-01T00:18:26.375Z,9.90
2018-03-01T00:20:52.634Z,9.30
2018-03-01T00:23:20.058Z,10.70
2018-03-01T00:25:46.306Z,12.70
2018-03-01T00:28:13.001Z,11.70
2018-03-01T00:30:40.488Z,8.40
2018-03-01T00:33:06.735Z,8.38
2018-03-01T00:35:32.982Z,9.85
2018-03-01T00:37:59.271Z,8.13
2018-03-01T00:40:26.263Z,9.60
2018-03-01T00:42:52.968Z,11.10
2018-03-01T00:45:20.039Z,12.25
2018-03-01T00:47:46.762Z,11.12
2018-03-01T00:50:13.782Z,9.25
2018-03-01T00:52:40.446Z,8.65
2018-03-01T00:55:07.191Z,12.10
2018-03-01T00:57:33.794Z,14.50
2018-03-01T01:00:00.049Z,13.60
2018-03-01T01:02:27.232Z,13.85
2018-03-01T01:04:55.003Z,13.85
2018-03-01T01:07:21.984Z,14.02
2018-03-01T01:09:48.804Z,13.15
2018-03-01T01:12:15.800Z,15.73
2018-03-01T01:14:42.063Z,16.77
2018-03-01T01:17:08.638Z,15.93
2018-03-01T01:19:35.647Z,16.02
2018-03-01T01:22:02.311Z,14.57
2018-03-01T01:24:30.824Z,16.65
2018-03-01T01:26:58.377Z,15.25
2018-03-01T01:29:27.638Z,18.23
2018-03-01T01:31:53.887Z,14.27
2018-03-01T01:34:20.178Z,16.67
2018-03-01T01:36:47.288Z,14.32
2018-03-01T01:39:13.967Z,10.85
2018-03-01T01:41:40.592Z,8.75
2018-03-01T01:44:08.036Z,13.60
2018-03-01T01:46:34.673Z,12.82
2018-03-01T01:49:01.030Z,12.52
2018-03-01T01:51:28.002Z,13.70
2018-03-01T01:53:54.790Z,10.98
2018-03-01T01:56:21.030Z,12.95
2018-03-01T01:58:47.276Z,14.35
2018-03-01T02:01:13.542Z,14.75
2018-03-01T02:03:40.961Z,11.70
2018-03-01T02:06:07.577Z,11.15
2018-03-01T02:08:34.378Z,13.30
2018-03-01T02:11:01.458Z,12.25
2018-03-01T02:13:27.706Z,14.50
2018-03-01T02:15:53.967Z,14.50
2018-03-01T02:18:21.065Z,16.37
2018-03-01T02:20:48.088Z,14.30
2018-03-01T02:23:14.965Z,14.50
2018-03-01T02:25:41.942Z,16.10
2018-03-01T02:28:08.639Z,16.80
2018-03-01T02:30:36.096Z,14.60
2018-03-01T02:33:02.449Z,16.50
2018-03-01T02:35:29.929Z,13.27
2018-03-01T02:37:57.486Z,11.95
2018-03-01T02:40:24.474Z,15.05
2018-03-01T02:42:51.622Z,14.35
2018-03-01T02:45:18.447Z,14.75
2018-03-01T02:47:44.704Z,13.60
2018-03-01T02:50:10.953Z,13.90
2018-03-01T02:52:37.956Z,14.93
2018-03-01T02:55:04.934Z,11.63
2018-03-01T02:57:31.174Z,15.90
2018-03-01T02:59:57.450Z,15.80
2018-03-01T03:02:24.321Z,15.85
2018-03-01T03:04:52.095Z,15.20
2018-03-01T03:07:19.087Z,14.32
2018-03-01T03:09:45.903Z,14.60
2018-03-01T03:12:12.879Z,15.32
2018-03-01T03:14:39.122Z,14.93
2018-03-01T03:17:05.786Z,14.65
2018-03-01T03:19:32.778Z,17.23
2018-03-01T03:21:59.766Z,18.42
2018-03-01T03:24:26.018Z,19.85
2018-03-01T03:26:52.710Z,15.95
2018-03-01T03:29:20.156Z,18.30
2018-03-01T03:31:46.389Z,18.60
2018-03-01T03:34:12.629Z,16.10
2018-03-01T03:36:40.266Z,16.50
2018-03-01T03:39:07.150Z,14.98
2018-03-01T03:41:34.462Z,17.00
2018-03-01T03:44:00.695Z,15.75
2018-03-01T03:46:26.940Z,14.73
2018-03-01T03:49:08.648Z,16.55
2018-03-01T03:51:34.887Z,17.55
2018-03-01T03:54:01.126Z,14.35
2018-03-01T03:56:28.589Z,13.57
2018-03-01T03:58:55.569Z,16.73
2018-03-01T04:01:21.861Z,15.75
2018-03-01T04:03:48.624Z,16.50
2018-03-01T04:06:16.400Z,15.20
2018-03-01T04:08:43.823Z,16.45
2018-03-01T04:11:10.081Z,15.70
2018-03-01T04:13:37.409Z,15.30
2018-03-01T04:16:03.665Z,16.95
2018-03-01T04:18:30.385Z,15.93
2018-03-01T04:20:56.653Z,14.07
2018-03-01T04:23:23.704Z,15.38
2018-03-01T04:25:50.872Z,14.90
2018-03-01T04:28:18.548Z,15.00
2018-03-01T04:30:45.176Z,15.65
2018-03-01T04:33:12.621Z,14.98
2018-03-01T04:35:38.872Z,13.52
2018-03-01T04:38:06.317Z,13.95
2018-03-01T04:40:32.597Z,15.10
2018-03-01T04:42:58.855Z,17.48
2018-03-01T04:45:25.848Z,16.67
2018-03-01T04:47:52.609Z,16.10
2018-03-01T04:50:19.599Z,15.65
2018-03-01T04:52:45.861Z,17.70
2018-03-01T04:55:12.440Z,16.35
2018-03-01T04:57:39.445Z,17.58
2018-03-01T05:00:05.795Z,19.90
2018-03-01T05:02:32.582Z,14.90
2018-03-01T05:05:00.449Z,11.75
2018-03-01T05:07:27.428Z,16.70
2018-03-01T05:09:54.132Z,15.95
2018-03-01T05:12:20.781Z,13.65
2018-03-01T05:14:48.145Z,12.25
2018-03-01T05:17:15.149Z,11.90
2018-03-01T05:19:41.408Z,13.60
2018-03-01T05:22:08.212Z,17.23
2018-03-01T05:24:34.428Z,15.77
2018-03-01T05:27:01.173Z,16.48
2018-03-01T05:29:28.113Z,15.85
2018-03-01T05:31:55.751Z,12.35
2018-03-01T05:34:22.522Z,12.82
2018-03-01T05:36:49.508Z,16.75
2018-03-01T05:39:15.760Z,13.23
2018-03-01T05:41:42.342Z,15.23
2018-03-01T05:44:10.907Z,15.48
2018-03-01T05:46:37.168Z,15.90
2018-03-01T05:49:04.233Z,16.35
2018-03-01T05:51:31.506Z,17.52
2018-03-01T05:53:57.784Z,16.85
2018-03-01T05:56:24.137Z,14.90
2018-03-01T05:58:50.701Z,18.40
2018-03-01T06:01:17.722Z,15.15
2018-03-01T06:03:44.788Z,16.55
2018-03-01T06:06:11.553Z,17.33
2018-03-01T06:08:38.391Z,17.45
2018-03-01T06:11:05.437Z,15.98
2018-03-01T06:13:32.247Z,16.80
2018-03-01T06:15:58.516Z,17.98
2018-03-01T06:18:24.773Z,19.10
2018-03-01T06:20:52.437Z,19.45
2018-03-01T06:23:19.447Z,18.75
2018-03-01T06:25:46.343Z,21.85
2018-03-01T06:28:13.295Z,18.62
2018-03-01T06:30:39.959Z,16.30
2018-03-01T06:33:06.661Z,19.65
2018-03-01T06:35:33.647Z,17.37
2018-03-01T06:37:59.906Z,17.83
2018-03-01T06:40:26.193Z,18.70
2018-03-01T06:42:53.661Z,16.92
2018-03-01T06:45:20.644Z,17.50
2018-03-01T06:47:46.909Z,17.42
2018-03-01T06:50:13.186Z,19.37
2018-03-01T06:52:39.440Z,17.40
2018-03-01T06:55:05.888Z,16.75
2018-03-01T06:57:32.488Z,17.87
2018-03-01T06:59:59.472Z,17.87
2018-03-01T07:02:26.898Z,16.45
2018-03-01T07:04:55.592Z,22.87
2018-03-01T07:07:23.063Z,21.55
2018-03-01T07:09:50.517Z,18.15
2018-03-01T07:12:17.509Z,16.42
2018-03-01T07:14:44.216Z,20.23
2018-03-01T07:17:12.496Z,18.35
2018-03-01T07:19:39.506Z,18.55
2018-03-01T07:22:05.756Z,18.08
2018-03-01T07:24:32.021Z,25.75
2018-03-01T07:26:58.741Z,19.48
2018-03-01T07:29:25.613Z,17.75
2018-03-01T07:31:52.605Z,21.70
2018-03-01T07:34:18.861Z,20.58
2018-03-01T07:36:45.143Z,24.55
2018-03-01T07:39:11.460Z,21.48
2018-03-01T07:41:39.562Z,22.23
2018-03-01T07:44:05.798Z,26.87
2018-03-01T07:46:32.048Z,24.30
2018-03-01T07:48:58.533Z,21.73
2018-03-01T07:51:24.781Z,22.97
2018-03-01T07:53:51.876Z,49.80
2018-03-01T07:56:18.189Z,60.63
2018-03-01T07:58:45.168Z,29.95
2018-03-01T08:01:11.463Z,46.13
2018-03-01T08:03:39.127Z,33.40
2018-03-01T08:06:07.103Z,21.80
2018-03-01T08:08:34.878Z,21.58
2018-03-01T08:11:01.909Z,20.17
2018-03-01T08:13:28.902Z,19.80
2018-03-01T08:15:55.618Z,21.20
2018-03-01T08:18:22.664Z,20.45
2018-03-01T08:20:48.908Z,24.73
2018-03-01T08:23:17.389Z,22.63
2018-03-01T08:25:45.165Z,21.55
2018-03-01T08:28:12.677Z,22.57
2018-03-01T08:30:39.341Z,25.40
2018-03-01T08:33:05.620Z,22.52
2018-03-01T08:35:31.884Z,24.25
2018-03-01T08:37:58.688Z,26.13
2018-03-01T08:40:25.679Z,23.23
2018-03-01T08:42:51.973Z,24.83
2018-03-01T08:45:18.347Z,23.93
2018-03-01T08:47:44.596Z,24.63
2018-03-01T08:50:10.952Z,24.43
2018-03-01T08:52:37.228Z,23.08
2018-03-01T08:55:03.582Z,22.85
2018-03-01T08:57:29.837Z,24.05
2018-03-01T08:59:56.104Z,23.70
2018-03-01T09:02:22.765Z,22.00
2018-03-01T09:04:50.645Z,24.57
2018-03-01T09:07:17.896Z,20.93
2018-03-01T09:09:45.245Z,22.07
2018-03-01T09:12:12.117Z,22.83
2018-03-01T09:14:38.802Z,22.80
2018-03-01T09:17:05.773Z,24.97
2018-03-01T09:19:32.015Z,23.00
2018-03-01T09:21:58.984Z,23.83
2018-03-01T09:24:27.006Z,24.30
2018-03-01T09:26:53.595Z,23.90
2018-03-01T09:29:21.267Z,24.50
2018-03-01T09:31:48.263Z,23.90
2018-03-01T09:34:14.522Z,22.30
2018-03-01T09:36:41.311Z,23.50
2018-03-01T09:39:08.735Z,22.33
2018-03-01T09:41:35.277Z,24.37
2018-03-01T09:44:01.509Z,24.77
2018-03-01T09:46:27.757Z,25.07
2018-03-01T09:48:54.320Z,22.07
2018-03-01T09:51:21.983Z,24.23
2018-03-01T09:53:48.978Z,24.57
2018-03-01T09:56:15.247Z,23.27
2018-03-01T09:58:41.806Z,24.60
2018-03-01T10:01:09.277Z,24.73
2018-03-01T10:03:36.711Z,25.07
2018-03-01T10:06:03.480Z,25.03
2018-03-01T10:08:30.951Z,24.27
2018-03-01T10:10:57.943Z,23.90
2018-03-01T10:13:24.239Z,23.80
2018-03-01T10:15:51.551Z,24.23
2018-03-01T10:18:17.802Z,24.77
2018-03-01T10:20:44.461Z,23.73
2018-03-01T10:23:12.025Z,23.57
2018-03-01T10:25:39.513Z,24.37
2018-03-01T10:28:05.761Z,24.40
2018-03-01T10:30:32.440Z,24.37
2018-03-01T10:32:59.326Z,23.57
2018-03-01T10:35:26.369Z,25.10
2018-03-01T10:37:53.833Z,24.10
2018-03-01T10:40:20.825Z,25.87
2018-03-01T10:42:47.501Z,23.63
2018-03-01T10:45:13.741Z,24.50
2018-03-01T10:47:40.406Z,21.30
2018-03-01T10:50:07.413Z,23.97
2018-03-01T10:52:33.665Z,24.70
2018-03-01T10:55:00.193Z,23.20
2018-03-01T10:57:27.298Z,22.53
2018-03-01T10:59:55.082Z,22.70
2018-03-01T11:02:21.341Z,22.53
2018-03-01T11:04:48.345Z,22.37
2018-03-01T11:07:15.671Z,22.77
2018-03-01T11:09:42.550Z,23.30
2018-03-01T11:12:09.568Z,24.00
2018-03-01T11:14:35.831Z,22.60
2018-03-01T11:17:03.613Z,25.47
2018-03-01T11:19:30.696Z,23.00
2018-03-01T11:21:57.225Z,22.70
2018-03-01T11:24:23.473Z,22.53
2018-03-01T11:26:50.185Z,26.37
2018-03-01T11:29:17.759Z,23.33
2018-03-01T11:31:45.310Z,22.87
2018-03-01T11:34:12.888Z,23.20
2018-03-01T11:36:39.877Z,24.70
2018-03-01T11:39:06.901Z,24.70
2018-03-01T11:41:33.223Z,23.17
2018-03-01T11:44:00.216Z,23.60
2018-03-01T11:46:26.479Z,23.47
2018-03-01T11:48:52.743Z,24.20
2018-03-01T11:51:19.829Z,25.23
2018-03-01T11:53:46.106Z,23.00
2018-03-01T11:56:12.973Z,22.60
2018-03-01T11:58:40.539Z,24.43
2018-03-01T12:01:07.523Z,23.43
2018-03-01T12:03:34.240Z,22.70
2018-03-01T12:06:01.791Z,24.33
2018-03-01T12:08:29.261Z,24.20
2018-03-01T12:10:56.247Z,25.40
2018-03-01T12:13:22.504Z,28.23
2018-03-01T12:15:49.055Z,23.70
2018-03-01T12:18:15.791Z,23.70
2018-03-01T12:20:42.479Z,24.83
2018-03-01T12:23:09.461Z,23.83
2018-03-01T12:25:36.333Z,35.63
2018-03-01T12:28:03.004Z,23.63
2018-03-01T12:30:29.783Z,23.63
2018-03-01T12:32:56.428Z,22.50
2018-03-01T12:35:22.735Z,22.17
2018-03-01T12:37:49.663Z,24.17
2018-03-01T12:40:15.968Z,24.00
2018-03-01T12:42:42.218Z,22.17
2018-03-01T12:45:08.495Z,24.10
2018-03-01T12:47:34.843Z,22.57
2018-03-01T12:50:01.970Z,20.33
2018-03-01T12:52:28.762Z,21.90
2018-03-01T12:54:55.999Z,19.93
2018-03-01T12:57:23.026Z,21.47
2018-03-01T12:59:49.370Z,20.90
2018-03-01T13:02:16.050Z,19.23
2018-03-01T13:04:44.686Z,24.03
2018-03-01T13:07:11.613Z,24.17
2018-03-01T13:09:38.391Z,18.73
2018-03-01T13:12:05.152Z,18.47
2018-03-01T13:14:31.822Z,27.10
2018-03-01T13:16:58.659Z,22.50
2018-03-01T13:19:25.719Z,24.30
2018-03-01T13:21:52.750Z,26.00
2018-03-01T13:24:20.142Z,24.27
2018-03-01T13:26:46.766Z,23.00
2018-03-01T13:29:14.248Z,24.10
2018-03-01T13:31:40.534Z,24.13
2018-03-01T13:37:15.672Z,21.90
2018-03-01T13:39:42.066Z,20.07
2018-03-01T13:42:12.139Z,26.80
2018-03-01T13:44:38.430Z,22.67
2018-03-01T13:47:06.819Z,23.40
2018-03-01T13:49:33.782Z,26.70
2018-03-01T13:52:00.031Z,21.53
2018-03-01T13:54:26.749Z,23.90
2018-03-01T13:56:53.042Z,24.37
2018-03-01T13:59:20.066Z,24.50
2018-03-01T14:01:46.640Z,23.33
2018-03-01T14:04:13.983Z,24.63
2018-03-01T14:06:41.423Z,24.47
2018-03-01T14:09:08.486Z,22.20
2018-03-01T14:11:34.766Z,23.73
2018-03-01T14:14:02.378Z,20.40
2018-03-01T14:16:28.660Z,20.10
2018-03-01T14:18:57.804Z,22.70
2018-03-01T14:21:43.446Z,25.27
2018-03-01T14:24:22.120Z,25.27
2018-03-01T14:26:49.862Z,23.90
2018-03-01T14:29:29.334Z,28.80
2018-03-01T14:31:56.158Z,28.17
2018-03-01T14:34:22.416Z,27.00
2018-03-01T14:36:48.674Z,28.70
2018-03-01T14:39:15.727Z,22.93
2018-03-01T14:41:42.768Z,28.10
2018-03-01T14:44:09.852Z,22.70
2018-03-01T14:46:36.418Z,23.93
2018-03-01T14:49:03.426Z,23.73
2018-03-01T14:51:30.769Z,25.90
2018-03-01T14:53:57.030Z,25.37
2018-03-01T14:56:23.724Z,22.77
2018-03-01T14:58:50.027Z,20.40
2018-03-01T15:01:16.306Z,21.87
2018-03-01T15:03:42.961Z,23.27
2018-03-01T15:06:09.575Z,26.83
2018-03-01T15:08:36.574Z,25.33
2018-03-01T15:11:04.346Z,27.30
2018-03-01T15:13:30.728Z,27.43
2018-03-01T15:15:57.318Z,28.37
2018-03-01T15:18:24.311Z,27.90
2018-03-01T15:20:51.013Z,22.50
2018-03-01T15:23:18.073Z,26.33
2018-03-01T15:25:45.728Z,28.30
2018-03-01T15:28:12.738Z,22.90
2018-03-01T15:30:39.522Z,26.73
2018-03-01T15:33:06.526Z,27.30
2018-03-01T15:35:32.801Z,26.70
2018-03-01T15:37:59.066Z,30.10
2018-03-01T15:40:26.047Z,25.30
2018-03-01T15:42:52.407Z,25.90
2018-03-01T15:45:19.042Z,20.80
2018-03-01T15:47:46.034Z,24.13
2018-03-01T15:50:13.031Z,24.83
2018-03-01T15:52:39.936Z,22.60
2018-03-01T15:55:06.930Z,24.17
2018-03-01T15:57:33.178Z,19.60
2018-03-01T15:59:59.463Z,22.77
2018-03-01T16:02:26.467Z,23.53
2018-03-01T16:04:53.592Z,23.67
2018-03-01T16:07:19.972Z,22.03
2018-03-01T16:09:46.602Z,23.37
2018-03-01T16:12:13.287Z,23.60
2018-03-01T16:14:40.283Z,19.70
2018-03-01T16:17:07.199Z,23.00
2018-03-01T16:19:33.903Z,22.93
2018-03-01T16:22:00.550Z,23.13
2018-03-01T16:24:26.874Z,23.10
2018-03-01T16:26:53.543Z,24.30
2018-03-01T16:29:20.415Z,23.00
2018-03-01T16:31:47.439Z,20.70
2018-03-01T16:34:14.200Z,24.30
2018-03-01T16:36:41.192Z,21.53
2018-03-01T16:39:07.887Z,18.90
2018-03-01T16:41:34.143Z,23.20
2018-03-01T16:44:01.466Z,19.73
2018-03-01T16:46:28.235Z,16.47
2018-03-01T16:48:55.230Z,13.23
2018-03-01T16:51:21.539Z,21.50
2018-03-01T16:53:47.810Z,22.70
2018-03-01T16:56:14.066Z,24.77
2018-03-01T16:58:40.855Z,26.80
2018-03-01T17:01:07.864Z,26.93
2018-03-01T17:03:34.565Z,25.63
2018-03-01T17:06:01.167Z,23.13
2018-03-01T17:08:27.435Z,25.77
2018-03-01T17:10:53.978Z,24.90
2018-03-01T17:13:20.299Z,21.63
2018-03-01T17:15:47.826Z,22.23
2018-03-01T17:18:14.055Z,19.43
2018-03-01T17:20:40.314Z,16.20
2018-03-01T17:23:06.586Z,20.03
2018-03-01T17:25:33.623Z,18.80
2018-03-01T17:28:01.294Z,20.87
2018-03-01T17:30:28.042Z,18.50
2018-03-01T17:32:54.738Z,19.17
2018-03-01T17:35:21.008Z,18.27
2018-03-01T17:37:47.990Z,18.60
2018-03-01T17:40:14.708Z,19.20
2018-03-01T17:42:41.702Z,17.97
2018-03-01T17:45:08.636Z,20.40
2018-03-01T17:47:35.446Z,24.10
2018-03-01T17:50:02.456Z,23.23
2018-03-01T17:52:28.728Z,25.37
2018-03-01T17:54:55.010Z,25.30
2018-03-01T17:57:22.538Z,22.97
2018-03-01T17:59:50.000Z,22.50
2018-03-01T18:02:17.047Z,25.40
2018-03-01T18:04:44.493Z,24.67
2018-03-01T18:07:11.259Z,22.43
2018-03-01T18:09:38.795Z,19.60
2018-03-01T18:12:05.042Z,21.93
2018-03-01T18:14:31.859Z,22.60
2018-03-01T18:16:58.446Z,21.63
2018-03-01T18:19:25.506Z,23.43
2018-03-01T18:21:52.519Z,22.10
2018-03-01T18:24:18.824Z,26.60
2018-03-01T18:26:45.522Z,27.63
2018-03-01T18:29:12.391Z,24.87
2018-03-01T18:31:39.414Z,21.93
2018-03-01T18:34:05.669Z,19.77
2018-03-01T18:36:33.135Z,19.50
2018-03-01T18:39:00.487Z,19.43
2018-03-01T18:41:27.882Z,24.27
2018-03-01T18:43:54.138Z,21.53
2018-03-01T18:46:20.906Z,22.10
2018-03-01T18:48:47.194Z,23.87
2018-03-01T18:51:13.457Z,23.10
2018-03-01T18:53:39.767Z,24.10
2018-03-01T18:56:06.250Z,24.73
2018-03-01T18:58:33.362Z,23.10
2018-03-01T19:01:00.522Z,26.03
2018-03-01T19:03:27.730Z,24.60
2018-03-01T19:05:55.319Z,22.87
2018-03-01T19:08:21.685Z,18.07
2018-03-01T19:10:49.139Z,21.90
2018-03-01T19:13:16.235Z,21.83
2018-03-01T19:15:43.198Z,24.50
2018-03-01T19:18:10.126Z,27.83
2018-03-01T19:20:36.637Z,23.57
2018-03-01T19:23:03.520Z,24.07
2018-03-01T19:25:31.967Z,25.23
2018-03-01T19:27:58.353Z,24.33
2018-03-01T19:30:25.546Z,22.40
2018-03-01T19:32:52.655Z,18.77
2018-03-01T19:35:19.593Z,20.63
2018-03-01T19:37:45.939Z,22.80
2018-03-01T19:40:12.926Z,19.40
2018-03-01T19:42:39.935Z,19.70
2018-03-01T19:45:06.718Z,27.10
2018-03-01T19:47:33.838Z,27.70
2018-03-01T19:50:00.087Z,28.47
2018-03-01T19:52:26.374Z,29.07
2018-03-01T19:54:53.517Z,28.93
2018-03-01T19:57:19.785Z,26.00
2018-03-01T19:59:46.609Z,23.73
2018-03-01T20:02:12.866Z,21.67
2018-03-01T20:04:39.762Z,24.13
2018-03-01T20:07:07.071Z,19.90
2018-03-01T20:09:33.858Z,22.03
2018-03-01T20:12:00.114Z,20.60
2018-03-01T20:14:27.720Z,21.50
2018-03-01T20:16:53.958Z,26.37
2018-03-01T20:19:20.852Z,22.50
2018-03-01T20:21:48.322Z,21.40
2018-03-01T20:24:16.029Z,27.10
2018-03-01T20:26:42.689Z,19.30
2018-03-01T20:29:10.409Z,20.10
2018-03-01T20:31:37.030Z,17.07
2018-03-01T20:34:04.397Z,15.20
2018-03-01T20:36:31.738Z,16.17
2018-03-01T20:38:58.515Z,17.50
2018-03-01T20:41:24.769Z,20.50
2018-03-01T20:43:51.789Z,19.23
2018-03-01T20:46:18.823Z,18.27
2018-03-01T20:48:45.814Z,16.67
2018-03-01T20:51:12.078Z,18.70
2018-03-01T20:53:39.095Z,18.27
2018-03-01T20:56:05.774Z,18.60
2018-03-01T20:58:32.360Z,17.57
2018-03-01T21:00:59.351Z,17.97
2018-03-01T21:03:26.158Z,15.60
2018-03-01T21:05:53.558Z,21.13
2018-03-01T21:08:20.371Z,21.87
2018-03-01T21:10:48.120Z,18.57
2018-03-01T21:13:15.200Z,18.07
2018-03-01T21:15:42.286Z,16.47
2018-03-01T21:18:08.999Z,16.43
2018-03-01T21:20:36.583Z,23.10
2018-03-01T21:23:03.551Z,21.60
2018-03-01T21:25:30.231Z,17.53
2018-03-01T21:27:56.495Z,17.40
2018-03-01T21:30:23.978Z,17.07
2018-03-01T21:32:50.234Z,17.37
2018-03-01T21:35:16.783Z,16.53
2018-03-01T21:37:43.574Z,16.57
2018-03-01T21:40:10.570Z,16.53
2018-03-01T21:42:36.831Z,15.43
2018-03-01T21:45:03.138Z,17.27
2018-03-01T21:47:29.394Z,21.80
2018-03-01T21:49:56.999Z,24.60
2018-03-01T21:52:24.342Z,24.57
2018-03-01T21:54:51.203Z,21.43
2018-03-01T21:57:18.650Z,17.97
2018-03-01T21:59:44.903Z,17.87
2018-03-01T22:02:11.902Z,20.03
2018-03-01T22:04:38.839Z,15.17
2018-03-01T22:07:05.959Z,17.33
2018-03-01T22:09:33.729Z,19.17
2018-03-01T22:12:00.721Z,18.07
2018-03-01T22:14:26.998Z,19.07
2018-03-01T22:16:54.000Z,19.83
2018-03-01T22:19:20.259Z,16.03
2018-03-01T22:21:47.359Z,15.37
2018-03-01T22:24:14.916Z,15.40
2018-03-01T22:26:42.478Z,18.80
2018-03-01T22:29:10.462Z,22.00
2018-03-01T22:31:37.885Z,26.43
2018-03-01T22:34:04.565Z,27.27
2018-03-01T22:36:30.840Z,19.25
2018-03-01T22:38:57.112Z,20.40
2018-03-01T22:41:23.498Z,22.95
2018-03-01T22:43:49.752Z,20.00
2018-03-01T22:46:16.120Z,20.33
2018-03-01T22:48:43.152Z,21.00
2018-03-01T22:51:10.249Z,15.10
2018-03-01T22:53:36.503Z,21.08
2018-03-01T22:56:03.130Z,22.92
2018-03-01T22:58:30.791Z,23.07
2018-03-01T23:00:57.842Z,20.92
2018-03-01T23:03:24.858Z,21.20
2018-03-01T23:05:51.691Z,18.60
2018-03-01T23:08:17.975Z,15.20
2018-03-01T23:10:45.656Z,13.68
2018-03-01T23:13:11.951Z,14.57
2018-03-01T23:15:38.246Z,13.77
2018-03-01T23:18:04.519Z,15.63
2018-03-01T23:20:31.175Z,21.42
2018-03-01T23:22:58.857Z,24.45
2018-03-01T23:25:26.734Z,23.38
2018-03-01T23:27:53.735Z,18.40
2018-03-01T23:30:20.633Z,24.83
2018-03-01T23:32:48.098Z,17.48
2018-03-01T23:35:15.090Z,17.87
2018-03-01T23:37:41.908Z,17.73
2018-03-01T23:40:08.194Z,19.90
2018-03-01T23:42:34.440Z,18.40
2018-03-01T23:45:00.717Z,16.33
2018-03-01T23:47:27.751Z,17.27
2018-03-01T23:49:55.513Z,14.07
2018-03-01T23:52:22.900Z,14.53
2018-03-01T23:54:49.155Z,15.50
2018-03-01T23:57:15.839Z,16.30
2018-03-01T23:59:42.093Z,14.80
